sensor_id;sensor_type;location;lat;lon;timestamp;pressure;altitude;pressure_sealevel;temperature;humidity
21086;BME280;34247;50.064;19.970;2023-04-30T00:00:55;99121.56;;;14.21;100.00
21086;BME280;34247;50.064;19.970;2023-04-30T00:02:07;99120.72;;;14.21;100.00
21086;BME280;34247;50.064;19.970;2023-04-30T00:03:17;99123.47;;;14.19;100.00
21086;BME280;34247;50.064;19.970;2023-04-30T00:04:26;99124.94;;;14.23;100.00
21086;BME280;34247;50.064;19.970;2023-04-30T00:05:40;99114.53;;;14.20;100.00
21086;BME280;34247;50.064;19.970;2023-04-30T00:06:44;99122.41;;;14.22;100.00
21086;BME280;34247;50.064;19.970;2023-04-30T00:07:50;99123.47;;;14.19;100.00
21086;BME280;34247;50.064;19.970;2023-04-30T00:08:55;99124.47;;;14.18;100.00
21086;BME280;34247;50.064;19.970;2023-04-30T00:10:02;99120.72;;;14.21;100.00
21086;BME280;34247;50.064;19.970;2023-04-30T00:11:09;99118.75;;;14.23;100.00
21086;BME280;34247;50.064;19.970;2023-04-30T00:12:13;99118.88;;;14.21;100.00
21086;BME280;34247;50.064;19.970;2023-04-30T00:13:20;99122.78;;;14.17;100.00
21086;BME280;34247;50.064;19.970;2023-04-30T00:14:24;99116.22;;;14.21;100.00
21086;BME280;34247;50.064;19.970;2023-04-30T00:15:28;99126.03;;;14.21;100.00
21086;BME280;34247;50.064;19.970;2023-04-30T00:16:31;99130.66;;;14.19;100.00
21086;BME280;34247;50.064;19.970;2023-04-30T00:17:36;99129.47;;;14.12;100.00
21086;BME280;34247;50.064;19.970;2023-04-30T00:18:40;99124.88;;;14.14;100.00
21086;BME280;34247;50.064;19.970;2023-04-30T00:19:44;99122.31;;;14.12;100.00
21086;BME280;34247;50.064;19.970;2023-04-30T00:20:48;99127.41;;;14.15;100.00
21086;BME280;34247;50.064;19.970;2023-04-30T00:21:56;99118.69;;;14.13;100.00
21086;BME280;34247;50.064;19.970;2023-04-30T00:23:00;99121.47;;;14.12;100.00
21086;BME280;34247;50.064;19.970;2023-04-30T00:24:10;99118.63;;;14.03;100.00
21086;BME280;34247;50.064;19.970;2023-04-30T00:25:14;99119.59;;;14.02;100.00
21086;BME280;34247;50.064;19.970;2023-04-30T00:26:19;99128.72;;;14.00;100.00
21086;BME280;34247;50.064;19.970;2023-04-30T00:27:23;99122.69;;;13.98;100.00
21086;BME280;34247;50.064;19.970;2023-04-30T00:28:27;99124.78;;;14.04;100.00
21086;BME280;34247;50.064;19.970;2023-04-30T00:29:31;99122.72;;;14.07;100.00
21086;BME280;34247;50.064;19.970;2023-04-30T00:30:35;99118.22;;;14.08;100.00
21086;BME280;34247;50.064;19.970;2023-04-30T00:31:39;99116.69;;;14.05;100.00
21086;BME280;34247;50.064;19.970;2023-04-30T00:32:43;99121.03;;;14.06;100.00
21086;BME280;34247;50.064;19.970;2023-04-30T00:33:48;99122.97;;;14.04;100.00
21086;BME280;34247;50.064;19.970;2023-04-30T00:34:52;99123.38;;;14.00;100.00
21086;BME280;34247;50.064;19.970;2023-04-30T00:35:56;99129.69;;;13.99;100.00
21086;BME280;34247;50.064;19.970;2023-04-30T00:37:00;99124.28;;;13.89;100.00
21086;BME280;34247;50.064;19.970;2023-04-30T00:38:07;99122.91;;;13.95;100.00
21086;BME280;34247;50.064;19.970;2023-04-30T00:39:11;99122.06;;;13.94;100.00
21086;BME280;34247;50.064;19.970;2023-04-30T00:40:16;99128.31;;;13.84;100.00
21086;BME280;34247;50.064;19.970;2023-04-30T00:41:21;99125.25;;;13.88;100.00
21086;BME280;34247;50.064;19.970;2023-04-30T00:42:25;99125.75;;;13.82;100.00
21086;BME280;34247;50.064;19.970;2023-04-30T00:43:29;99127.72;;;13.80;100.00
21086;BME280;34247;50.064;19.970;2023-04-30T00:44:33;99131.94;;;13.83;100.00
21086;BME280;34247;50.064;19.970;2023-04-30T00:45:38;99131.63;;;13.76;100.00
21086;BME280;34247;50.064;19.970;2023-04-30T00:46:41;99129.91;;;13.75;100.00
21086;BME280;34247;50.064;19.970;2023-04-30T00:47:46;99135.53;;;13.72;100.00
21086;BME280;34247;50.064;19.970;2023-04-30T00:48:50;99132.09;;;13.81;100.00
21086;BME280;34247;50.064;19.970;2023-04-30T00:49:54;99131.25;;;13.80;100.00
21086;BME280;34247;50.064;19.970;2023-04-30T00:50:58;99140.78;;;13.83;100.00
21086;BME280;34247;50.064;19.970;2023-04-30T00:52:09;99138.03;;;13.85;100.00
21086;BME280;34247;50.064;19.970;2023-04-30T00:53:14;99139.56;;;13.87;100.00
21086;BME280;34247;50.064;19.970;2023-04-30T00:54:20;99131.72;;;13.86;100.00
21086;BME280;34247;50.064;19.970;2023-04-30T00:55:24;99131.31;;;13.69;100.00
21086;BME280;34247;50.064;19.970;2023-04-30T00:56:30;99130.19;;;13.72;100.00
21086;BME280;34247;50.064;19.970;2023-04-30T00:57:35;99133.34;;;13.77;100.00
21086;BME280;34247;50.064;19.970;2023-04-30T00:58:40;99135.41;;;13.73;100.00
21086;BME280;34247;50.064;19.970;2023-04-30T00:59:45;99139.19;;;13.71;100.00
21086;BME280;34247;50.064;19.970;2023-04-30T01:00:49;99138.06;;;13.73;100.00
21086;BME280;34247;50.064;19.970;2023-04-30T01:01:53;99137.72;;;13.67;100.00
21086;BME280;34247;50.064;19.970;2023-04-30T01:02:57;99138.19;;;13.72;100.00
21086;BME280;34247;50.064;19.970;2023-04-30T01:04:02;99141.13;;;13.69;100.00
21086;BME280;34247;50.064;19.970;2023-04-30T01:05:09;99140.25;;;13.68;100.00
21086;BME280;34247;50.064;19.970;2023-04-30T01:06:13;99134.56;;;13.73;100.00
21086;BME280;34247;50.064;19.970;2023-04-30T01:07:18;99134.56;;;13.73;100.00
21086;BME280;34247;50.064;19.970;2023-04-30T01:08:22;99135.03;;;13.78;100.00
21086;BME280;34247;50.064;19.970;2023-04-30T01:09:30;99133.06;;;13.80;100.00
21086;BME280;34247;50.064;19.970;2023-04-30T01:10:51;99139.38;;;13.79;100.00
21086;BME280;34247;50.064;19.970;2023-04-30T01:12:36;99134.38;;;13.86;100.00
21086;BME280;34247;50.064;19.970;2023-04-30T01:13:58;99131.72;;;13.86;100.00
21086;BME280;34247;50.064;19.970;2023-04-30T01:15:37;99134.25;;;13.87;100.00
21086;BME280;34247;50.064;19.970;2023-04-30T01:17:04;99128.91;;;13.87;100.00
21086;BME280;34247;50.064;19.970;2023-04-30T01:18:24;99132.28;;;13.89;100.00
21086;BME280;34247;50.064;19.970;2023-04-30T01:19:44;99128.31;;;13.84;100.00
21086;BME280;34247;50.064;19.970;2023-04-30T01:20:55;99127.16;;;13.76;100.00
21086;BME280;34247;50.064;19.970;2023-04-30T01:22:08;99127.66;;;13.70;100.00
21086;BME280;34247;50.064;19.970;2023-04-30T01:28:07;99132.16;;;13.70;100.00
21086;BME280;34247;50.064;19.970;2023-04-30T01:29:16;99141.03;;;13.59;100.00
21086;BME280;34247;50.064;19.970;2023-04-30T01:30:28;99137.50;;;13.59;100.00
21086;BME280;34247;50.064;19.970;2023-04-30T01:31:34;99141.88;;;13.60;100.00
21086;BME280;34247;50.064;19.970;2023-04-30T01:32:38;99130.03;;;13.52;100.00
21086;BME280;34247;50.064;19.970;2023-04-30T01:33:41;99136.69;;;13.47;100.00
21086;BME280;34247;50.064;19.970;2023-04-30T01:34:46;99140.69;;;13.52;100.00
21086;BME280;34247;50.064;19.970;2023-04-30T01:40:40;99139.22;;;13.60;100.00
21086;BME280;34247;50.064;19.970;2023-04-30T01:42:12;99140.06;;;13.60;100.00
21086;BME280;34247;50.064;19.970;2023-04-30T01:46:41;99149.28;;;13.56;100.00
21086;BME280;34247;50.064;19.970;2023-04-30T01:48:21;99144.84;;;13.45;100.00
21086;BME280;34247;50.064;19.970;2023-04-30T01:49:56;99144.25;;;13.42;100.00
21086;BME280;34247;50.064;19.970;2023-04-30T01:51:43;99148.75;;;13.41;100.00
21086;BME280;34247;50.064;19.970;2023-04-30T01:52:58;99143.41;;;13.41;100.00
21086;BME280;34247;50.064;19.970;2023-04-30T01:55:43;99146.91;;;13.42;100.00
21086;BME280;34247;50.064;19.970;2023-04-30T01:57:06;99147.28;;;13.37;100.00
21086;BME280;34247;50.064;19.970;2023-04-30T01:58:14;99151.06;;;13.35;100.00
21086;BME280;34247;50.064;19.970;2023-04-30T01:59:19;99148.25;;;13.36;100.00
21086;BME280;34247;50.064;19.970;2023-04-30T02:02:12;99155.75;;;13.42;100.00
21086;BME280;34247;50.064;19.970;2023-04-30T02:04:10;99156.75;;;13.41;100.00
21086;BME280;34247;50.064;19.970;2023-04-30T02:06:09;99156.13;;;13.38;100.00
21086;BME280;34247;50.064;19.970;2023-04-30T02:08:10;99159.63;;;13.38;100.00
21086;BME280;34247;50.064;19.970;2023-04-30T02:10:09;99147.19;;;13.28;100.00
21086;BME280;34247;50.064;19.970;2023-04-30T02:12:08;99153.13;;;13.31;100.00
21086;BME280;34247;50.064;19.970;2023-04-30T02:14:06;99153.25;;;13.30;100.00
21086;BME280;34247;50.064;19.970;2023-04-30T02:16:05;99155.31;;;13.26;100.00
21086;BME280;34247;50.064;19.970;2023-04-30T02:18:04;99159.91;;;13.24;100.00
21086;BME280;34247;50.064;19.970;2023-04-30T02:20:03;99151.69;;;13.27;100.00
21086;BME280;34247;50.064;19.970;2023-04-30T02:22:00;99156.75;;;13.19;100.00
21086;BME280;34247;50.064;19.970;2023-04-30T02:23:59;99155.31;;;13.15;100.00
21086;BME280;34247;50.064;19.970;2023-04-30T02:25:57;99151.19;;;13.11;100.00
21086;BME280;34247;50.064;19.970;2023-04-30T02:27:54;99157.97;;;13.15;100.00
21086;BME280;34247;50.064;19.970;2023-04-30T02:29:53;99155.31;;;13.15;100.00
21086;BME280;34247;50.064;19.970;2023-04-30T02:31:51;99156.63;;;13.09;100.00
21086;BME280;34247;50.064;19.970;2023-04-30T02:33:50;99160.75;;;13.13;100.00
21086;BME280;34247;50.064;19.970;2023-04-30T02:35:48;99162.94;;;13.19;100.00
21086;BME280;34247;50.064;19.970;2023-04-30T02:37:46;99168.38;;;13.18;100.00
21086;BME280;34247;50.064;19.970;2023-04-30T02:39:44;99162.84;;;13.21;100.00
21086;BME280;34247;50.064;19.970;2023-04-30T02:41:43;99165.38;;;13.22;100.00
21086;BME280;34247;50.064;19.970;2023-04-30T02:43:41;99171.06;;;13.29;100.00
21086;BME280;34247;50.064;19.970;2023-04-30T02:45:39;99176.03;;;13.34;100.00
21086;BME280;34247;50.064;19.970;2023-04-30T02:47:38;99169.38;;;13.28;100.00
21086;BME280;34247;50.064;19.970;2023-04-30T02:49:37;99171.06;;;13.29;100.00
21086;BME280;34247;50.064;19.970;2023-04-30T02:51:36;99173.94;;;13.37;100.00
21086;BME280;34247;50.064;19.970;2023-04-30T02:53:34;99179.41;;;13.36;100.00
21086;BME280;34247;50.064;19.970;2023-04-30T02:55:32;99177.00;;;13.33;100.00
21086;BME280;34247;50.064;19.970;2023-04-30T02:57:33;99178.94;;;13.31;100.00
21086;BME280;34247;50.064;19.970;2023-04-30T02:59:32;99182.56;;;13.30;100.00
21086;BME280;34247;50.064;19.970;2023-04-30T03:01:31;99178.06;;;13.30;100.00
21086;BME280;34247;50.064;19.970;2023-04-30T03:03:31;99183.69;;;13.27;100.00
21086;BME280;34247;50.064;19.970;2023-04-30T03:05:29;99178.56;;;13.24;100.00
21086;BME280;34247;50.064;19.970;2023-04-30T03:07:29;99184.88;;;13.23;100.00
21086;BME280;34247;50.064;19.970;2023-04-30T03:09:30;99184.66;;;13.26;100.00
21086;BME280;34247;50.064;19.970;2023-04-30T03:11:29;99184.13;;;13.32;100.00
21086;BME280;34247;50.064;19.970;2023-04-30T03:13:27;99183.19;;;13.33;100.00
21086;BME280;34247;50.064;19.970;2023-04-30T03:15:26;99183.41;;;13.30;100.00
21086;BME280;34247;50.064;19.970;2023-04-30T03:17:25;99194.69;;;13.22;100.00
21086;BME280;34247;50.064;19.970;2023-04-30T03:19:31;99187.75;;;13.31;100.00
21086;BME280;34247;50.064;19.970;2023-04-30T03:21:30;99190.56;;;13.30;100.00
21086;BME280;34247;50.064;19.970;2023-04-30T03:23:29;99195.91;;;13.30;100.00
21086;BME280;34247;50.064;19.970;2023-04-30T03:25:34;99191.19;;;13.33;100.00
21086;BME280;34247;50.064;19.970;2023-04-30T03:27:36;99199.19;;;13.33;100.00
21086;BME280;34247;50.064;19.970;2023-04-30T03:29:34;99199.41;;;13.30;100.00
21086;BME280;34247;50.064;19.970;2023-04-30T03:31:33;99204.63;;;13.20;100.00
21086;BME280;34247;50.064;19.970;2023-04-30T03:33:38;99201.97;;;13.20;100.00
21086;BME280;34247;50.064;19.970;2023-04-30T03:35:39;99197.47;;;13.10;100.00
21086;BME280;34247;50.064;19.970;2023-04-30T03:37:43;99201.56;;;13.03;100.00
21086;BME280;34247;50.064;19.970;2023-04-30T03:39:45;99198.19;;;13.01;100.00
21086;BME280;34247;50.064;19.970;2023-04-30T03:41:47;99207.88;;;13.02;100.00
21086;BME280;34247;50.064;19.970;2023-04-30T03:43:45;99203.78;;;12.97;100.00
21086;BME280;34247;50.064;19.970;2023-04-30T03:45:44;99213.59;;;12.97;100.00
21086;BME280;34247;50.064;19.970;2023-04-30T03:47:44;99211.66;;;12.99;100.00
21086;BME280;34247;50.064;19.970;2023-04-30T03:49:42;99219.03;;;12.95;100.00
21086;BME280;34247;50.064;19.970;2023-04-30T03:51:41;99217.94;;;12.98;100.00
21086;BME280;34247;50.064;19.970;2023-04-30T03:53:39;99224.22;;;12.86;100.00
21086;BME280;34247;50.064;19.970;2023-04-30T03:55:38;99230.66;;;12.83;100.00
21086;BME280;34247;50.064;19.970;2023-04-30T03:57:39;99230.41;;;12.86;100.00
21086;BME280;34247;50.064;19.970;2023-04-30T03:59:40;99233.06;;;12.86;100.00
21086;BME280;34247;50.064;19.970;2023-04-30T04:01:38;99240.81;;;12.78;100.00
21086;BME280;34247;50.064;19.970;2023-04-30T04:03:36;99236.72;;;12.85;100.00
21086;BME280;34247;50.064;19.970;2023-04-30T04:05:34;99240.56;;;12.81;100.00
21086;BME280;34247;50.064;19.970;2023-04-30T04:07:32;99236.94;;;12.93;100.00
21086;BME280;34247;50.064;19.970;2023-04-30T04:09:30;99239.63;;;12.93;100.00
21086;BME280;34247;50.064;19.970;2023-04-30T04:11:29;99236.72;;;12.85;100.00
21086;BME280;34247;50.064;19.970;2023-04-30T04:13:28;99244.69;;;12.85;100.00
21086;BME280;34247;50.064;19.970;2023-04-30T04:15:26;99253.66;;;12.84;100.00
21086;BME280;34247;50.064;19.970;2023-04-30T04:17:25;99256.31;;;12.84;100.00
21086;BME280;34247;50.064;19.970;2023-04-30T04:19:47;99259.00;;;12.84;100.00
21086;BME280;34247;50.064;19.970;2023-04-30T04:21:45;99256.44;;;12.72;100.00
21086;BME280;34247;50.064;19.970;2023-04-30T04:23:43;99260.19;;;12.80;100.00
21086;BME280;34247;50.064;19.970;2023-04-30T04:25:45;99267.78;;;12.74;100.00
21086;BME280;34247;50.064;19.970;2023-04-30T04:27:46;99260.44;;;12.77;100.00
21086;BME280;34247;50.064;19.970;2023-04-30T04:29:51;99267.81;;;12.85;100.00
21086;BME280;34247;50.064;19.970;2023-04-30T04:31:50;99267.09;;;12.94;100.00
21086;BME280;34247;50.064;19.970;2023-04-30T04:33:49;99267.81;;;12.96;100.00
21086;BME280;34247;50.064;19.970;2023-04-30T04:35:49;99274.25;;;12.93;100.00
21086;BME280;34247;50.064;19.970;2023-04-30T04:37:50;99277.38;;;12.87;100.00
21086;BME280;34247;50.064;19.970;2023-04-30T04:39:49;99285.75;;;12.83;100.00
21086;BME280;34247;50.064;19.970;2023-04-30T04:41:47;99299.16;;;12.81;100.00
21086;BME280;34247;50.064;19.970;2023-04-30T04:43:46;99302.31;;;12.75;100.00
21086;BME280;34247;50.064;19.970;2023-04-30T04:45:45;99290.78;;;12.63;100.00
21086;BME280;34247;50.064;19.970;2023-04-30T04:47:47;99300.09;;;12.58;100.00
21086;BME280;34247;50.064;19.970;2023-04-30T04:49:46;99307.47;;;12.54;100.00
21086;BME280;34247;50.064;19.970;2023-04-30T04:51:45;99302.75;;;12.58;100.00
21086;BME280;34247;50.064;19.970;2023-04-30T04:53:43;99310.75;;;12.58;100.00
21086;BME280;34247;50.064;19.970;2023-04-30T04:55:45;99314.38;;;12.57;100.00
21086;BME280;34247;50.064;19.970;2023-04-30T04:57:46;99308.41;;;12.42;100.00
21086;BME280;34247;50.064;19.970;2023-04-30T04:59:46;99318.78;;;12.45;100.00
21086;BME280;34247;50.064;19.970;2023-04-30T05:01:45;99315.06;;;12.48;100.00
21086;BME280;34247;50.064;19.970;2023-04-30T05:03:43;99325.72;;;12.48;100.00
21086;BME280;34247;50.064;19.970;2023-04-30T05:05:45;99331.91;;;12.48;100.00
21086;BME280;34247;50.064;19.970;2023-04-30T05:07:51;99328.03;;;12.52;100.00
21086;BME280;34247;50.064;19.970;2023-04-30T05:09:50;99337.22;;;12.48;100.00
21086;BME280;34247;50.064;19.970;2023-04-30T05:11:49;99342.31;;;12.51;100.00
21086;BME280;34247;50.064;19.970;2023-04-30T05:13:54;99338.34;;;12.57;100.00
21086;BME280;34247;50.064;19.970;2023-04-30T05:16:00;99342.31;;;12.51;100.00
21086;BME280;34247;50.064;19.970;2023-04-30T05:17:59;99350.69;;;12.58;100.00
21086;BME280;34247;50.064;19.970;2023-04-30T05:19:59;99351.38;;;12.49;100.00
21086;BME280;34247;50.064;19.970;2023-04-30T05:22:04;99356.69;;;12.49;100.00
21086;BME280;34247;50.064;19.970;2023-04-30T05:24:03;99352.69;;;12.43;100.00
21086;BME280;34247;50.064;19.970;2023-04-30T05:26:05;99364.19;;;12.43;100.00
21086;BME280;34247;50.064;19.970;2023-04-30T05:28:08;99364.19;;;12.43;100.00
21086;BME280;34247;50.064;19.970;2023-04-30T05:30:14;99363.69;;;12.38;100.00
21086;BME280;34247;50.064;19.970;2023-04-30T05:32:20;99372.00;;;12.34;100.00
21086;BME280;34247;50.064;19.970;2023-04-30T05:34:21;99369.78;;;12.28;100.00
21086;BME280;34247;50.064;19.970;2023-04-30T05:36:26;99381.00;;;12.20;100.00
21086;BME280;34247;50.064;19.970;2023-04-30T05:38:25;99386.66;;;12.15;100.00
21086;BME280;34247;50.064;19.970;2023-04-30T05:40:23;99391.38;;;12.12;100.00
21086;BME280;34247;50.064;19.970;2023-04-30T05:42:21;99384.78;;;12.05;100.00
21086;BME280;34247;50.064;19.970;2023-04-30T05:44:19;99392.09;;;12.14;100.00
21086;BME280;34247;50.064;19.970;2023-04-30T05:46:18;99399.75;;;12.19;100.00
21086;BME280;34247;50.064;19.970;2023-04-30T05:48:19;99402.00;;;12.12;100.00
21086;BME280;34247;50.064;19.970;2023-04-30T05:50:19;99405.50;;;12.12;99.61
21086;BME280;34247;50.064;19.970;2023-04-30T05:52:18;99410.25;;;11.96;97.13
21086;BME280;34247;50.064;19.970;2023-04-30T05:54:18;99419.50;;;11.91;97.76
21086;BME280;34247;50.064;19.970;2023-04-30T05:56:18;99418.31;;;11.95;97.49
21086;BME280;34247;50.064;19.970;2023-04-30T05:58:17;99427.34;;;12.05;97.73
21086;BME280;34247;50.064;19.970;2023-04-30T06:00:16;99427.56;;;12.02;95.19
21086;BME280;34247;50.064;19.970;2023-04-30T06:02:14;99437.69;;;11.97;94.64
21086;BME280;34247;50.064;19.970;2023-04-30T06:04:15;99432.69;;;11.92;94.70
21086;BME280;34247;50.064;19.970;2023-04-30T06:06:14;99434.75;;;11.89;94.27
21086;BME280;34247;50.064;19.970;2023-04-30T06:08:12;99447.19;;;11.88;93.65
21086;BME280;34247;50.064;19.970;2023-04-30T06:10:14;99449.44;;;11.81;91.29
21086;BME280;34247;50.064;19.970;2023-04-30T06:12:12;99452.38;;;11.64;90.91
21086;BME280;34247;50.064;19.970;2023-04-30T06:14:11;99454.53;;;11.46;90.81
21086;BME280;34247;50.064;19.970;2023-04-30T06:16:09;99450.59;;;11.52;91.46
21086;BME280;34247;50.064;19.970;2023-04-30T06:18:12;99454.00;;;11.54;91.78
21086;BME280;34247;50.064;19.970;2023-04-30T06:20:13;99455.47;;;11.58;90.78
21086;BME280;34247;50.064;19.970;2023-04-30T06:22:12;99473.00;;;11.48;89.59
21086;BME280;34247;50.064;19.970;2023-04-30T06:24:11;99467.38;;;11.27;89.58
21086;BME280;34247;50.064;19.970;2023-04-30T06:26:13;99466.22;;;11.31;90.32
21086;BME280;34247;50.064;19.970;2023-04-30T06:28:11;99470.56;;;11.32;89.98
21086;BME280;34247;50.064;19.970;2023-04-30T06:30:19;99471.13;;;11.37;89.33
21086;BME280;34247;50.064;19.970;2023-04-30T06:32:17;99471.97;;;11.38;88.67
21086;BME280;34247;50.064;19.970;2023-04-30T06:34:16;99476.81;;;11.44;88.98
21086;BME280;34247;50.064;19.970;2023-04-30T06:36:18;99476.94;;;11.42;89.41
21086;BME280;34247;50.064;19.970;2023-04-30T06:38:35;99476.75;;;11.45;88.57
21086;BME280;34247;50.064;19.970;2023-04-30T06:40:37;99477.06;;;11.41;88.31
21086;BME280;34247;50.064;19.970;2023-04-30T06:42:37;99486.84;;;11.40;87.14
21086;BME280;34247;50.064;19.970;2023-04-30T06:44:35;99489.19;;;11.45;86.79
21086;BME280;34247;50.064;19.970;2023-04-30T06:46:38;99495.34;;;11.45;86.47
21086;BME280;34247;50.064;19.970;2023-04-30T06:48:37;99487.28;;;11.47;86.25
21086;BME280;34247;50.064;19.970;2023-04-30T06:50:39;99492.91;;;11.55;86.26
21086;BME280;34247;50.064;19.970;2023-04-30T06:52:38;99495.44;;;11.56;85.74
21086;BME280;34247;50.064;19.970;2023-04-30T06:54:38;99499.19;;;11.54;85.42
21086;BME280;34247;50.064;19.970;2023-04-30T06:56:39;99506.94;;;11.57;84.95
21086;BME280;34247;50.064;19.970;2023-04-30T06:58:38;99497.25;;;11.43;86.23
21086;BME280;34247;50.064;19.970;2023-04-30T07:00:37;99511.81;;;11.50;85.98
21086;BME280;34247;50.064;19.970;2023-04-30T07:02:47;99507.59;;;11.60;86.13
21086;BME280;34247;50.064;19.970;2023-04-30T07:04:46;99510.13;;;11.62;86.66
21086;BME280;34247;50.064;19.970;2023-04-30T07:06:45;99508.63;;;11.58;86.82
21086;BME280;34247;50.064;19.970;2023-04-30T07:08:44;99515.69;;;11.59;86.35
21086;BME280;34247;50.064;19.970;2023-04-30T07:10:42;99516.19;;;11.64;87.29
21086;BME280;34247;50.064;19.970;2023-04-30T07:12:40;99522.06;;;11.69;86.33
21086;BME280;34247;50.064;19.970;2023-04-30T07:14:40;99519.72;;;11.77;85.99
21086;BME280;34247;50.064;19.970;2023-04-30T07:16:38;99527.28;;;11.83;86.04
21086;BME280;34247;50.064;19.970;2023-04-30T07:18:38;99516.13;;;11.91;85.99
21086;BME280;34247;50.064;19.970;2023-04-30T07:20:39;99517.81;;;11.92;85.25
21086;BME280;34247;50.064;19.970;2023-04-30T07:22:38;99524.84;;;11.93;84.73
21086;BME280;34247;50.064;19.970;2023-04-30T07:24:40;99534.06;;;11.75;83.24
21086;BME280;34247;50.064;19.970;2023-04-30T07:26:43;99528.38;;;11.81;83.85
21086;BME280;34247;50.064;19.970;2023-04-30T07:28:42;99536.50;;;11.78;83.81
21086;BME280;34247;50.064;19.970;2023-04-30T07:30:40;99534.53;;;11.81;82.95
21086;BME280;34247;50.064;19.970;2023-04-30T07:32:44;99538.25;;;11.92;83.41
21086;BME280;34247;50.064;19.970;2023-04-30T07:34:46;99533.66;;;11.94;82.86
21086;BME280;34247;50.064;19.970;2023-04-30T07:36:48;99544.13;;;11.97;84.64
21086;BME280;34247;50.064;19.970;2023-04-30T07:38:50;99541.00;;;12.15;83.48
21086;BME280;34247;50.064;19.970;2023-04-30T07:40:49;99546.31;;;12.28;83.80
21086;BME280;34247;50.064;19.970;2023-04-30T07:42:47;99548.66;;;12.33;82.11
21086;BME280;34247;50.064;19.970;2023-04-30T07:44:48;99540.09;;;12.40;81.88
21086;BME280;34247;50.064;19.970;2023-04-30T07:46:50;99549.97;;;12.51;81.79
21086;BME280;34247;50.064;19.970;2023-04-30T07:48:51;99540.59;;;12.58;81.71
21086;BME280;34247;50.064;19.970;2023-04-30T07:50:53;99540.31;;;12.74;82.40
21086;BME280;34247;50.064;19.970;2023-04-30T07:52:52;99539.50;;;12.97;82.96
21086;BME280;34247;50.064;19.970;2023-04-30T07:55:11;99546.69;;;13.32;82.78
21086;BME280;34247;50.064;19.970;2023-04-30T07:57:16;99544.28;;;13.87;83.06
21086;BME280;34247;50.064;19.970;2023-04-30T07:59:14;99548.09;;;14.51;80.71
21086;BME280;34247;50.064;19.970;2023-04-30T08:01:14;99544.03;;;15.11;77.54
21086;BME280;34247;50.064;19.970;2023-04-30T08:03:12;99551.09;;;15.44;75.00
21086;BME280;34247;50.064;19.970;2023-04-30T08:05:12;99540.56;;;15.32;72.93
21086;BME280;34247;50.064;19.970;2023-04-30T08:07:11;99548.44;;;15.33;73.96
21086;BME280;34247;50.064;19.970;2023-04-30T08:09:13;99548.09;;;15.27;73.94
21086;BME280;34247;50.064;19.970;2023-04-30T08:11:11;99547.06;;;15.18;74.30
21086;BME280;34247;50.064;19.970;2023-04-30T08:13:11;99557.69;;;15.08;75.06
21086;BME280;34247;50.064;19.970;2023-04-30T08:15:11;99549.31;;;15.02;74.80
21086;BME280;34247;50.064;19.970;2023-04-30T08:17:15;99550.63;;;15.07;73.54
21086;BME280;34247;50.064;19.970;2023-04-30T08:19:17;99547.97;;;15.07;72.62
21086;BME280;34247;50.064;19.970;2023-04-30T08:21:18;99550.63;;;15.07;72.43
21086;BME280;34247;50.064;19.970;2023-04-30T08:23:17;99562.09;;;15.30;70.55
21086;BME280;34247;50.064;19.970;2023-04-30T08:25:37;99544.50;;;15.90;68.81
21086;BME280;34247;50.064;19.970;2023-04-30T08:27:35;99538.97;;;16.84;66.47
21086;BME280;34247;50.064;19.970;2023-04-30T08:29:34;99536.59;;;17.77;62.48
21086;BME280;34247;50.064;19.970;2023-04-30T08:31:33;99541.50;;;18.38;59.70
21086;BME280;34247;50.064;19.970;2023-04-30T08:33:33;99543.13;;;18.22;58.08
21086;BME280;34247;50.064;19.970;2023-04-30T08:35:35;99540.22;;;17.96;58.27
21086;BME280;34247;50.064;19.970;2023-04-30T08:37:37;99551.53;;;17.99;58.11
21086;BME280;34247;50.064;19.970;2023-04-30T08:39:35;99542.53;;;17.90;58.39
21086;BME280;34247;50.064;19.970;2023-04-30T08:41:45;99549.84;;;17.88;53.59
21086;BME280;34247;50.064;19.970;2023-04-30T08:43:46;99540.56;;;18.57;50.67
21086;BME280;34247;50.064;19.970;2023-04-30T08:45:46;99545.38;;;19.09;49.26
21086;BME280;34247;50.064;19.970;2023-04-30T08:47:45;99544.66;;;20.04;45.88
21086;BME280;34247;50.064;19.970;2023-04-30T08:49:44;99549.69;;;20.59;44.71
21086;BME280;34247;50.064;19.970;2023-04-30T08:51:42;99552.06;;;20.62;44.39
21086;BME280;34247;50.064;19.970;2023-04-30T08:53:41;99552.34;;;19.99;43.68
21086;BME280;34247;50.064;19.970;2023-04-30T08:55:41;99549.66;;;19.73;44.31
21086;BME280;34247;50.064;19.970;2023-04-30T08:57:39;99544.53;;;19.08;44.18
21086;BME280;34247;50.064;19.970;2023-04-30T08:59:37;99547.72;;;18.76;44.85
21086;BME280;34247;50.064;19.970;2023-04-30T09:01:35;99546.47;;;18.70;44.89
21086;BME280;34247;50.064;19.970;2023-04-30T09:03:33;99546.03;;;18.38;44.37
21086;BME280;34247;50.064;19.970;2023-04-30T09:05:32;99551.75;;;18.15;45.29
21086;BME280;34247;50.064;19.970;2023-04-30T09:07:33;99552.13;;;18.30;46.35
21086;BME280;34247;50.064;19.970;2023-04-30T09:09:38;99548.31;;;18.33;46.53
21086;BME280;34247;50.064;19.970;2023-04-30T09:11:36;99547.31;;;18.34;46.43
21086;BME280;34247;50.064;19.970;2023-04-30T09:13:40;99551.53;;;18.36;46.13
21086;BME280;34247;50.064;19.970;2023-04-30T09:15:40;99549.66;;;18.46;45.91
21086;BME280;34247;50.064;19.970;2023-04-30T09:17:38;99546.88;;;18.38;45.69
21086;BME280;34247;50.064;19.970;2023-04-30T09:19:36;99556.00;;;18.18;45.77
21086;BME280;34247;50.064;19.970;2023-04-30T09:21:36;99550.66;;;18.18;46.47